This is the latest recevied weather packets stored in our database for station/object SP8AQK-13. If no packets are shown the sender has not sent any weather packets the latest 10 day(s).
| Time | Temp. | Humidity | Pressure | Rain* | Wind** | Luminosity | Snow |
|---|---|---|---|---|---|---|---|
| 1777445045 | 8.89° C | 52% | 1027 hPa | - | - | - | - |
| 1777443844 | 6.67° C | 57% | 1027.1 hPa | - | - | - | - |
| 1777442644 | 6.11° C | 58% | 1027.2 hPa | - | - | - | - |
| 1777441443 | 5° C | 64% | 1027.1 hPa | - | - | - | - |
| 1777440242 | 3.89° C | 71% | 1027.2 hPa | - | - | - | - |
| 1777439041 | 2.78° C | 75% | 1027.4 hPa | - | - | - | - |
| 1777437841 | 2.22° C | 77% | 1027.5 hPa | - | - | - | - |
| 1777436640 | 1.67° C | 80% | 1027.3 hPa | - | - | - | - |
| 1777435439 | 1.11° C | 81% | 1027.2 hPa | - | - | - | - |
| 1777434238 | 1.11° C | 85% | 1027.3 hPa | - | - | - | - |
| 1777433038 | 0.56° C | 86% | 1027.4 hPa | - | - | - | - |
| 1777431837 | 0.56° C | 85% | 1027.3 hPa | - | - | - | - |
| 1777430636 | 0° C | 85% | 1027.4 hPa | - | - | - | - |
| 1777429436 | 0° C | 84% | 1027.3 hPa | - | - | - | - |
| 1777428235 | 0° C | 83% | 1027.3 hPa | - | - | - | - |
| 1777427034 | -0.56° C | 82% | 1027.2 hPa | - | - | - | - |
| 1777425833 | -0.56° C | 83% | 1027.4 hPa | - | - | - | - |
| 1777424633 | -1.11° C | 84% | 1027.3 hPa | - | - | - | - |
| 1777423432 | -1.11° C | 83% | 1027.3 hPa | - | - | - | - |
| 1777422231 | -1.11° C | 81% | 1027.3 hPa | - | - | - | - |
| 1777421031 | -0.56° C | 84% | 1027.4 hPa | - | - | - | - |
| 1777419830 | -0.56° C | 81% | 1027.4 hPa | - | - | - | - |
| 1777418629 | -0.56° C | 80% | 1027.4 hPa | - | - | - | - |
| 1777417429 | 0° C | 77% | 1027.3 hPa | - | - | - | - |
| 1777416228 | 0° C | 78% | 1027.2 hPa | - | - | - | - |
* Rain since midnight (hover to see other rain measurements)
** Current wind speed in m/s (hover to see current wind gust speed)